Time;durP1;ratioP1;P1;durP2;ratioP2;P2;SDS_P1;SDS_P2;PMS_P1;PMS_P2;Temp;Humidity;BMP_temperature;BMP_pressure;BME280_temperature;BME280_humidity;BME280_pressure;Samples;Min_cycle;Max_cycle;Signal;HPM_P1;HPM_P2
2023/04/23 00:01:01;;;;;;;19.40;12.70;;;5.70;99.90;;;;;;8301125;28;20190;-67
2023/04/23 00:05:16;;;;;;;;;;;;;;;;;;;;;
2023/04/23 00:09:31;;;;;;;11.70;8.57;;;5.50;99.90;;;;;;8296339;28;20259;-68
2023/04/23 00:13:50;;;;;;;12.53;8.70;;;5.30;99.90;;;;;;8296088;28;20201;-68
2023/04/23 00:17:55;;;;;;;12.03;8.73;;;5.20;99.90;;;;;;8297782;28;20194;-67
2023/04/23 00:21:59;;;;;;;14.17;8.77;;;5.10;99.90;;;;;;8297667;28;20186;-67
2023/04/23 00:26:16;;;;;;;14.70;10.10;;;5.10;99.90;;;;;;8306794;28;20183;-67
2023/04/23 00:30:23;;;;;;;15.20;10.83;;;5.10;99.90;;;;;;8304888;28;20214;-67
2023/04/23 00:34:31;;;;;;;16.73;10.60;;;5.00;99.90;;;;;;8298330;28;20186;-66
2023/04/23 00:38:42;;;;;;;15.77;10.83;;;5.00;99.90;;;;;;8295209;28;20232;-67
2023/04/23 00:42:51;;;;;;;14.17;10.23;;;4.90;1.00;;;;;;8291963;28;20186;-67
2023/04/23 00:47:13;;;;;;;15.33;10.20;;;4.80;99.90;;;;;;8296321;28;20260;-66
2023/04/23 00:51:35;;;;;;;16.40;10.30;;;4.70;1.00;;;;;;8290786;28;20189;-67
2023/04/23 00:55:39;;;;;;;14.60;9.60;;;4.60;1.00;;;;;;8287433;28;20197;-67
2023/04/23 00:59:57;;;;;;;13.17;8.70;;;4.60;1.00;;;;;;8302533;28;20291;-68
2023/04/23 01:04:26;;;;;;;11.80;8.77;;;4.50;1.00;;;;;;8295609;28;20210;-68
2023/04/23 01:08:43;;;;;;;12.63;9.40;;;4.40;1.00;;;;;;8303682;28;20277;-69
2023/04/23 01:12:59;;;;;;;14.63;9.87;;;4.40;22.70;;;;;;8293336;28;20182;-68
2023/04/23 01:17:04;;;;;;;17.47;10.23;;;4.40;99.90;;;;;;8299694;28;20231;-69
2023/04/23 01:21:19;;;;;;;14.67;10.57;;;4.30;99.90;;;;;;8307160;28;20205;-67
2023/04/23 01:25:23;;;;;;;15.07;10.17;;;4.30;99.90;;;;;;8298124;28;20185;-69
2023/04/23 01:29:25;;;;;;;15.37;10.57;;;4.20;99.90;;;;;;8294495;28;20214;-69
2023/04/23 01:33:40;;;;;;;16.83;11.07;;;4.20;99.90;;;;;;8304760;28;20225;-69
2023/04/23 01:37:46;;;;;;;19.10;12.17;;;4.10;1.00;;;;;;8299777;28;20213;-69
2023/04/23 01:42:01;;;;;;;21.97;12.20;;;4.10;1.00;;;;;;8291453;28;20186;-68
2023/04/23 01:46:05;;;;;;;14.10;9.77;;;4.10;1.00;;;;;;8298018;28;20192;-67
2023/04/23 01:50:22;;;;;;;14.93;9.83;;;4.00;1.00;;;;;;8292215;28;20214;-67
2023/04/23 01:54:29;;;;;;;11.70;9.03;;;3.90;1.00;;;;;;8318511;28;20195;-67
2023/04/23 01:58:39;;;;;;;12.90;9.03;;;3.80;1.00;;;;;;8299659;28;20206;-67
2023/04/23 02:02:44;;;;;;;12.17;9.20;;;3.70;1.00;;;;;;8306308;28;20191;-67
2023/04/23 02:06:57;;;;;;;12.43;9.43;;;3.70;99.90;;;;;;8296853;28;20210;-69
2023/04/23 02:11:09;;;;;;;15.13;9.83;;;3.70;99.90;;;;;;8293632;28;20274;-68
2023/04/23 02:15:26;;;;;;;14.03;9.80;;;3.60;99.90;;;;;;8265896;28;20274;-69
2023/04/23 02:19:40;;;;;;;13.60;9.23;;;3.60;1.00;;;;;;8266007;28;20190;-68
2023/04/23 02:23:52;;;;;;;15.70;9.87;;;3.60;20.80;;;;;;8254568;28;20329;-69
2023/04/23 02:27:58;;;;;;;16.80;10.83;;;3.60;99.90;;;;;;8268571;28;20270;-69
2023/04/23 02:32:07;;;;;;;16.37;11.47;;;3.60;99.90;;;;;;8251370;28;20195;-67
2023/04/23 02:36:20;;;;;;;15.70;10.97;;;3.50;1.00;;;;;;8255231;28;20216;-68
2023/04/23 02:40:28;;;;;;;18.77;11.40;;;3.60;23.90;;;;;;8308856;28;20249;-68
2023/04/23 02:44:32;;;;;;;17.57;11.40;;;3.60;99.90;;;;;;8310586;28;20293;-69
2023/04/23 02:49:20;;;;;;;13.87;10.07;;;3.50;99.90;;;;;;8316208;28;20212;-69
2023/04/23 02:53:24;;;;;;;17.93;11.10;;;3.50;99.90;;;;;;8279171;28;20206;-69
2023/04/23 02:57:28;;;;;;;14.73;10.30;;;3.40;99.90;;;;;;8309298;28;20221;-68
2023/04/23 03:01:56;;;;;;;13.43;10.10;;;3.30;1.00;;;;;;8312713;28;20197;-69
2023/04/23 03:06:11;;;;;;;13.43;8.90;;;3.30;99.90;;;;;;8289948;28;20209;-69
2023/04/23 03:10:22;;;;;;;10.47;8.43;;;3.20;12.80;;;;;;8311279;28;20285;-68
2023/04/23 03:14:39;;;;;;;12.83;9.03;;;3.20;99.90;;;;;;8312289;28;20186;-68
2023/04/23 03:18:44;;;;;;;15.73;9.13;;;3.10;1.00;;;;;;8309631;28;20457;-69
2023/04/23 03:22:48;;;;;;;12.93;9.30;;;3.10;1.00;;;;;;8306182;28;20186;-67
2023/04/23 03:26:52;;;;;;;11.60;8.60;;;3.10;99.90;;;;;;8304717;28;20201;-68
2023/04/23 03:30:54;;;;;;;13.27;9.33;;;3.10;1.00;;;;;;8304175;28;20282;-68
2023/04/23 03:34:57;;;;;;;14.60;11.03;;;3.10;99.90;;;;;;8313500;28;20197;-68
2023/04/23 03:39:08;;;;;;;13.40;9.47;;;3.10;99.90;;;;;;8312178;28;20189;-67
2023/04/23 03:43:15;;;;;;;13.30;10.00;;;3.00;1.00;;;;;;8312253;28;20191;-68
2023/04/23 03:47:18;;;;;;;12.70;9.20;;;3.00;99.90;;;;;;8302690;28;20215;-68
2023/04/23 03:51:26;;;;;;;14.13;9.83;;;3.00;99.90;;;;;;8309247;28;20293;-67
2023/04/23 03:55:35;;;;;;;11.93;9.53;;;3.10;27.30;;;;;;8297501;28;20195;-68
2023/04/23 03:59:45;;;;;;;13.70;9.60;;;3.20;1.00;;;;;;8297298;28;20207;-68
2023/04/23 04:03:55;;;;;;;14.00;10.27;;;3.30;99.90;;;;;;8289916;28;20207;-67
2023/04/23 04:07:56;;;;;;;12.90;10.10;;;3.40;99.90;;;;;;8290200;28;20313;-68
2023/04/23 04:12:13;;;;;;;15.77;11.70;;;3.50;99.90;;;;;;8296909;28;20279;-68
2023/04/23 04:16:23;;;;;;;15.00;11.30;;;3.80;99.90;;;;;;8277367;28;20285;-71
2023/04/23 04:20:29;;;;;;;12.97;10.50;;;4.50;1.00;;;;;;8299636;28;20308;-69
2023/04/23 04:24:31;;;;;;;14.93;11.67;;;5.20;1.00;;;;;;8292587;28;20211;-69
2023/04/23 04:28:36;;;;;;;15.27;12.20;;;5.80;99.90;;;;;;8302779;28;20222;-68
2023/04/23 04:32:44;;;;;;;16.23;11.47;;;6.40;99.90;;;;;;8297595;28;20191;-68
2023/04/23 04:37:01;;;;;;;19.40;14.00;;;6.90;99.90;;;;;;8301830;28;20203;-67
2023/04/23 04:41:02;;;;;;;16.93;11.70;;;7.40;1.00;;;;;;8310555;28;20188;-66
2023/04/23 04:45:04;;;;;;;16.20;11.93;;;7.80;99.90;;;;;;8294606;28;20317;-68
2023/04/23 04:49:18;;;;;;;13.13;10.03;;;8.10;99.90;;;;;;8307714;28;20223;-68
2023/04/23 04:53:26;;;;;;;13.30;10.00;;;8.30;99.90;;;;;;8299280;28;20190;-69
2023/04/23 04:57:37;;;;;;;14.27;11.17;;;8.20;99.90;;;;;;8314672;28;20238;-68
2023/04/23 05:06:05;;;;;;;17.83;12.53;;;7.60;99.90;;;;;;8305638;28;20206;-68
2023/04/23 05:10:32;;;;;;;17.23;12.30;;;7.50;99.90;;;;;;8305193;28;20217;-67
2023/04/23 05:14:33;;;;;;;18.93;12.97;;;7.40;99.90;;;;;;8299816;28;20226;-69
2023/04/23 05:18:47;;;;;;;16.50;11.63;;;7.60;99.90;;;;;;8291744;28;20268;-68
2023/04/23 05:22:54;;;;;;;18.13;12.33;;;7.80;99.90;;;;;;8300856;28;20243;-67
2023/04/23 05:26:56;;;;;;;16.50;13.73;;;8.00;99.90;;;;;;8296869;28;20299;-68
2023/04/23 05:31:26;;;;;;;19.53;13.70;;;8.00;99.90;;;;;;8306879;28;20187;-67
2023/04/23 05:35:30;;;;;;;19.43;14.63;;;8.20;99.90;;;;;;8300048;28;20246;-67
2023/04/23 05:39:35;;;;;;;21.53;16.20;;;8.70;99.90;;;;;;8308921;28;20294;-68
2023/04/23 05:48:35;;;;;;;22.33;15.60;;;9.80;99.90;;;;;;8282408;28;20211;-68
2023/04/23 05:52:39;;;;;;;21.23;16.03;;;10.40;99.90;;;;;;8299613;28;20222;-67
2023/04/23 05:56:42;;;;;;;19.83;13.60;;;11.00;99.90;;;;;;8300557;28;20215;-67
2023/04/23 06:00:49;;;;;;;19.90;12.33;;;11.50;64.60;;;;;;8297934;28;20271;-68
2023/04/23 06:05:20;;;;;;;17.17;11.87;;;11.90;35.10;;;;;;8304549;28;20200;-67
2023/04/23 06:09:34;;;;;;;13.70;10.43;;;12.20;25.20;;;;;;8307161;28;20236;-68
2023/04/23 06:13:44;;;;;;;11.77;7.63;;;12.40;2.10;;;;;;8305016;28;20189;-66
2023/04/23 06:18:12;;;;;;;10.77;7.10;;;12.70;1.00;;;;;;8302958;28;20197;-67
2023/04/23 06:22:16;;;;;;;14.33;7.17;;;13.00;1.00;;;;;;8208002;28;20216;-69
2023/04/23 06:26:19;;;;;;;10.07;6.50;;;13.30;1.00;;;;;;8210201;28;20245;-68
2023/04/23 06:31:09;;;;;;;10.17;7.10;;;13.60;1.00;;;;;;8186002;28;20232;-68
2023/04/23 06:35:29;;;;;;;;;;;;;;;;;;;;;
2023/04/23 06:40:15;;;;;;;11.27;6.73;;;14.40;1.00;;;;;;8260863;28;20575;-68
2023/04/23 06:44:50;;;;;;;10.73;6.20;;;14.90;1.00;;;;;;8302114;28;20187;-68
2023/04/23 06:48:51;;;;;;;7.33;5.40;;;15.50;1.00;;;;;;8313440;28;20326;-67
2023/04/23 06:53:01;;;;;;;7.67;5.17;;;16.10;1.00;;;;;;8296112;28;20190;-66
2023/04/23 06:57:35;;;;;;;8.27;5.10;;;16.60;1.00;;;;;;8296694;28;20229;-66
2023/04/23 07:01:54;;;;;;;6.67;4.90;;;17.20;1.00;;;;;;8288139;28;20275;-67
2023/04/23 07:05:55;;;;;;;6.77;4.80;;;17.70;1.00;;;;;;8292763;28;20272;-66
2023/04/23 07:10:55;;;;;;;7.13;4.37;;;18.00;1.00;;;;;;8290294;28;20229;-67
2023/04/23 07:15:08;;;;;;;7.80;4.07;;;18.20;1.00;;;;;;8278909;28;20417;-67
2023/04/23 07:19:13;;;;;;;8.40;4.90;;;18.30;1.00;;;;;;8298553;28;20222;-66
2023/04/23 07:23:17;;;;;;;7.73;4.57;;;18.50;1.00;;;;;;8297164;28;20202;-70
2023/04/23 07:27:27;;;;;;;7.27;4.13;;;18.60;1.00;;;;;;8296171;28;20226;-69
2023/04/23 07:31:40;;;;;;;6.90;4.47;;;18.90;1.00;;;;;;8292677;28;20193;-70
2023/04/23 07:36:32;;;;;;;6.93;4.07;;;19.20;1.00;;;;;;8280770;28;20233;-69
2023/04/23 07:40:33;;;;;;;4.70;3.67;;;19.40;1.00;;;;;;8293079;28;20221;-70
2023/04/23 07:44:35;;;;;;;6.23;4.43;;;19.40;1.00;;;;;;8302066;28;20196;-70
2023/04/23 07:48:51;;;;;;;9.20;4.57;;;19.40;1.00;;;;;;8286299;28;20211;-69
2023/04/23 07:52:55;;;;;;;5.67;4.27;;;19.50;1.00;;;;;;8296689;28;20199;-70
2023/04/23 07:57:26;;;;;;;5.13;3.50;;;19.60;1.00;;;;;;8304940;28;20214;-71
2023/04/23 08:06:11;;;;;;;7.37;4.33;;;20.10;1.00;;;;;;8281727;28;20222;-72
2023/04/23 08:10:18;;;;;;;5.60;4.03;;;20.40;1.00;;;;;;8296874;28;20221;-70
2023/04/23 08:14:22;;;;;;;9.97;4.80;;;20.80;1.00;;;;;;8295082;28;20283;-70
2023/04/23 08:18:24;;;;;;;4.27;3.87;;;21.30;1.00;;;;;;8295940;28;20194;-71
2023/04/23 08:22:39;;;;;;;8.23;4.63;;;21.80;1.00;;;;;;8293591;28;20194;-70
2023/04/23 08:26:50;;;;;;;5.03;3.80;;;21.90;1.00;;;;;;8300796;28;20180;-69
2023/04/23 08:31:12;;;;;;;3.40;2.97;;;21.80;1.00;;;;;;8287265;28;20271;-70
2023/04/23 08:35:42;;;;;;;3.70;2.60;;;22.00;1.00;;;;;;8297033;28;20205;-69
2023/04/23 08:39:55;;;;;;;4.87;2.67;;;22.40;1.00;;;;;;8299089;28;20202;-70
2023/04/23 08:44:27;;;;;;;3.37;2.77;;;22.70;1.00;;;;;;8300094;28;20239;-70
2023/04/23 08:48:39;;;;;;;5.73;3.13;;;22.70;1.00;;;;;;8295938;28;20218;-70
2023/04/23 08:53:05;;;;;;;3.37;2.50;;;22.70;1.00;;;;;;8292585;28;20320;-68
2023/04/23 08:57:16;;;;;;;4.80;2.30;;;22.80;1.00;;;;;;8291822;28;20262;-69
2023/04/23 09:02:06;;;;;;;5.30;2.50;;;22.70;1.00;;;;;;8276182;28;20191;-69
2023/04/23 09:06:21;;;;;;;4.47;2.37;;;22.70;1.00;;;;;;8283423;28;20221;-69
2023/04/23 09:10:35;;;;;;;1.97;1.70;;;22.30;1.00;;;;;;8279500;28;20222;-70
2023/04/23 09:14:45;;;;;;;3.40;2.10;;;21.90;1.00;;;;;;8298780;28;20175;-70
2023/04/23 09:18:53;;;;;;;3.17;2.30;;;21.70;1.00;;;;;;8299531;28;20207;-70
2023/04/23 09:23:37;;;;;;;4.97;2.43;;;21.70;1.00;;;;;;8292131;28;20195;-69
2023/04/23 09:27:51;;;;;;;3.37;2.23;;;21.60;1.00;;;;;;8266741;28;20331;-70
2023/04/23 09:32:18;;;;;;;2.27;1.87;;;21.90;1.00;;;;;;8294931;28;20187;-69
2023/04/23 09:36:52;;;;;;;3.53;1.90;;;22.40;1.00;;;;;;8293006;28;20207;-68
2023/04/23 09:41:35;;;;;;;3.20;1.60;;;22.30;1.00;;;;;;8310170;28;20193;-70
2023/04/23 09:46:20;;;;;;;3.97;1.90;;;22.60;1.00;;;;;;8146978;28;20212;-70
2023/04/23 09:51:23;;;;;;;3.30;1.57;;;22.80;1.00;;;;;;8123310;28;20256;-70
2023/04/23 09:55:51;;;;;;;3.13;1.93;;;22.90;1.00;;;;;;8131972;29;20202;-70
2023/04/23 10:00:24;;;;;;;;;;;;;;;;;;;;;
2023/04/23 10:05:57;;;;;;;;;;;;;;;;;;;;;
2023/04/23 10:10:50;;;;;;;3.10;2.03;;;22.30;1.00;;;;;;8159329;28;20434;-69
2023/04/23 10:19:41;;;;;;;;;;;;;;;;;;;;;
2023/04/23 10:23:58;;;;;;;3.87;2.23;;;22.20;1.00;;;;;;8022822;29;20282;-70
2023/04/23 10:28:27;;;;;;;3.77;2.20;;;22.10;1.00;;;;;;8044381;28;20254;-65
2023/04/23 10:33:09;;;;;;;3.90;1.90;;;22.10;1.00;;;;;;8213896;28;20253;-64
2023/04/23 10:37:21;;;;;;;2.83;2.07;;;22.10;1.00;;;;;;8215730;28;20207;-67
2023/04/23 10:41:41;;;;;;;4.23;1.87;;;22.20;1.00;;;;;;8198667;28;20213;-67
2023/04/23 10:46:26;;;;;;;5.20;1.67;;;22.50;1.00;;;;;;8184604;28;20192;-67
2023/04/23 10:51:08;;;;;;;3.87;2.00;;;22.70;1.00;;;;;;8197238;28;20215;-67
2023/04/23 10:55:35;;;;;;;5.77;2.40;;;22.80;1.00;;;;;;8158080;28;20315;-67
2023/04/23 10:59:53;;;;;;;2.80;1.83;;;22.80;1.00;;;;;;8279171;28;20203;-67
2023/04/23 11:04:39;;;;;;;3.63;2.30;;;22.70;1.00;;;;;;8293326;28;20205;-66
2023/04/23 11:09:27;;;;;;;2.53;2.20;;;22.90;1.00;;;;;;8300555;28;20276;-65
2023/04/23 11:18:24;;;;;;;3.73;2.07;;;22.60;1.00;;;;;;8300762;28;20198;-68
2023/04/23 11:22:44;;;;;;;3.57;2.30;;;22.80;1.00;;;;;;8294132;28;20196;-66
2023/04/23 11:27:31;;;;;;;4.47;2.00;;;23.00;1.00;;;;;;8295037;28;20186;-68
2023/04/23 11:31:49;;;;;;;2.53;2.13;;;23.20;1.00;;;;;;8315672;28;20217;-67
2023/04/23 11:36:19;;;;;;;2.67;1.80;;;23.10;1.00;;;;;;8287504;28;20205;-67
2023/04/23 11:40:42;;;;;;;14.23;2.90;;;22.80;1.00;;;;;;8294097;28;20263;-68
2023/04/23 11:50:55;;;;;;;3.17;1.97;;;22.20;1.00;;;;;;8192050;28;20243;-69
2023/04/23 11:55:16;;;;;;;2.77;1.93;;;22.30;1.00;;;;;;8190964;28;20308;-66
2023/04/23 11:59:28;;;;;;;3.17;2.10;;;22.40;1.00;;;;;;8416911;23;20256;-69
2023/04/23 12:03:41;;;;;;;4.17;2.20;;;22.80;1.00;;;;;;8231114;28;20227;-67
2023/04/23 12:08:03;;;;;;;7.03;2.53;;;23.00;1.00;;;;;;8206149;28;20303;-69
2023/04/23 12:17:50;;;;;;;5.17;2.50;;;23.40;1.00;;;;;;8152541;28;20229;-68
2023/04/23 12:22:12;;;;;;;3.10;2.07;;;23.20;1.00;;;;;;8096416;29;20199;-68
2023/04/23 12:26:59;;;;;;;2.60;2.37;;;23.10;1.00;;;;;;8155398;28;20196;-68
2023/04/23 12:31:39;;;;;;;3.20;2.60;;;22.90;1.00;;;;;;8210431;28;20224;-68
2023/04/23 12:36:57;;;;;;;5.50;2.63;;;22.80;1.00;;;;;;8195562;28;20219;-68
2023/04/23 12:42:08;;;;;;;;;;;;;;;;;;;;;
2023/04/23 12:46:54;;;;;;;2.73;2.30;;;22.80;1.00;;;;;;8207622;28;20227;-70
2023/04/23 12:56:12;;;;;;;6.63;3.00;;;22.70;1.00;;;;;;8136520;28;20192;-67
2023/04/23 13:00:27;;;;;;;;;;;;;;;;;;;;;
2023/04/23 13:05:21;;;;;;;5.57;2.60;;;22.20;1.00;;;;;;8294477;28;20221;-66
2023/04/23 13:10:00;;;;;;;;;;;;;;;;;;;;;
2023/04/23 13:19:05;;;;;;;7.03;3.37;;;20.80;1.00;;;;;;8235927;28;20253;-66
2023/04/23 13:23:21;;;;;;;4.40;2.70;;;20.50;1.00;;;;;;8282371;28;20257;-66
2023/04/23 13:28:17;;;;;;;6.13;3.47;;;20.30;1.00;;;;;;8293987;28;20190;-67
2023/04/23 13:32:34;;;;;;;3.43;2.70;;;20.00;1.00;;;;;;8205099;28;20241;-63
2023/04/23 13:36:44;;;;;;;5.20;3.20;;;19.90;1.00;;;;;;8296753;28;20191;-67
2023/04/23 13:41:03;;;;;;;3.40;3.00;;;19.90;1.00;;;;;;8290174;28;20231;-66
2023/04/23 13:45:31;;;;;;;4.27;3.37;;;19.90;1.00;;;;;;8291013;28;20278;-69
2023/04/23 13:49:43;;;;;;;4.23;3.13;;;19.70;1.00;;;;;;8271172;28;20329;-69
2023/04/23 13:53:48;;;;;;;3.20;2.73;;;19.50;1.00;;;;;;8275891;28;20206;-69
2023/04/23 13:58:26;;;;;;;3.90;2.90;;;19.50;1.00;;;;;;8289993;28;20206;-66
2023/04/23 14:02:30;;;;;;;4.10;3.23;;;19.40;1.00;;;;;;8289452;28;20195;-67
2023/04/23 14:06:40;;;;;;;3.13;2.83;;;19.60;1.00;;;;;;8288622;28;20186;-69
2023/04/23 14:10:45;;;;;;;3.50;2.70;;;19.80;1.00;;;;;;8275726;28;20218;-68
2023/04/23 14:14:59;;;;;;;3.30;2.40;;;19.90;1.00;;;;;;8276337;28;20182;-69
2023/04/23 14:19:01;;;;;;;3.00;2.47;;;20.10;1.00;;;;;;8290854;28;20193;-70
2023/04/23 14:23:21;;;;;;;4.03;2.70;;;20.30;1.00;;;;;;8268418;28;20190;-67
2023/04/23 14:27:22;;;;;;;4.67;2.57;;;20.50;1.00;;;;;;8289990;28;20194;-68
2023/04/23 14:31:32;;;;;;;3.10;2.20;;;20.90;1.00;;;;;;8278826;28;20197;-68
2023/04/23 14:35:58;;;;;;;2.80;2.40;;;21.20;1.00;;;;;;8284623;28;20369;-70
2023/04/23 14:40:14;;;;;;;4.30;2.10;;;21.60;1.00;;;;;;8305825;28;20254;-70
2023/04/23 14:44:15;;;;;;;3.20;2.07;;;21.80;1.00;;;;;;8233556;28;20221;-72
2023/04/23 14:48:59;;;;;;;3.20;2.20;;;21.80;1.00;;;;;;8231382;28;20223;-70
2023/04/23 14:53:10;;;;;;;2.27;1.63;;;21.60;1.00;;;;;;8220199;28;20200;-69
2023/04/23 14:57:23;;;;;;;2.00;1.80;;;21.30;1.00;;;;;;8225988;28;20296;-70
2023/04/23 15:01:49;;;;;;;3.33;1.90;;;20.90;1.00;;;;;;8209310;28;20219;-70
2023/04/23 15:10:41;;;;;;;3.00;2.07;;;20.60;1.00;;;;;;8224517;28;20316;-70
2023/04/23 15:15:10;;;;;;;2.73;1.90;;;20.50;1.00;;;;;;8215752;28;20288;-71
2023/04/23 15:19:16;;;;;;;2.67;2.20;;;20.30;1.00;;;;;;8213934;28;20255;-65
2023/04/23 15:24:07;;;;;;;3.43;1.87;;;20.20;1.00;;;;;;8210865;28;20912;-66
2023/04/23 15:28:29;;;;;;;2.23;1.87;;;19.90;1.00;;;;;;8176905;28;20274;-66
2023/04/23 15:33:01;;;;;;;2.90;1.60;;;19.90;1.00;;;;;;8181415;28;20346;-66
2023/04/23 15:37:14;;;;;;;2.50;1.80;;;19.90;1.00;;;;;;8158121;28;20291;-65
2023/04/23 15:41:18;;;;;;;1.80;1.50;;;19.90;1.00;;;;;;8218186;28;20237;-66
2023/04/23 15:45:51;;;;;;;2.77;1.80;;;19.80;1.00;;;;;;8236771;28;20206;-66
2023/04/23 15:50:01;;;;;;;2.10;1.77;;;19.70;1.00;;;;;;8250173;28;20222;-66
2023/04/23 15:54:06;;;;;;;2.90;1.83;;;19.60;1.00;;;;;;8256278;28;20288;-65
2023/04/23 15:58:13;;;;;;;2.67;1.83;;;19.50;1.00;;;;;;8263382;28;20253;-66
2023/04/23 16:02:28;;;;;;;2.20;1.80;;;19.40;1.00;;;;;;8271383;28;20195;-65
2023/04/23 16:06:56;;;;;;;1.93;1.57;;;19.20;1.00;;;;;;8272376;28;20197;-66
2023/04/23 16:11:07;;;;;;;3.20;2.50;;;19.00;1.00;;;;;;8265221;28;20234;-65
2023/04/23 16:15:09;;;;;;;3.23;2.30;;;18.70;1.00;;;;;;8296584;28;20191;-65
2023/04/23 16:19:20;;;;;;;2.43;1.80;;;18.50;1.00;;;;;;8271292;28;20193;-65
2023/04/23 16:23:25;;;;;;;3.03;2.07;;;18.30;1.00;;;;;;8271696;28;20277;-65
2023/04/23 16:27:46;;;;;;;3.23;2.10;;;18.00;1.00;;;;;;8270184;28;20195;-65
2023/04/23 16:32:07;;;;;;;3.43;2.27;;;17.90;1.00;;;;;;8186586;28;20193;-65
2023/04/23 16:40:59;;;;;;;3.40;2.17;;;17.60;1.00;;;;;;8188878;28;20197;-71
2023/04/23 16:45:07;;;;;;;2.93;2.10;;;17.40;1.00;;;;;;8164185;28;20208;-69
2023/04/23 16:49:12;;;;;;;2.93;2.53;;;17.30;1.00;;;;;;8186671;28;20232;-70
2023/04/23 16:53:19;;;;;;;2.53;2.07;;;17.20;1.00;;;;;;8176454;28;20226;-70
2023/04/23 16:57:24;;;;;;;2.87;2.40;;;17.10;1.00;;;;;;8193365;28;20224;-70
2023/04/23 17:01:44;;;;;;;2.43;2.03;;;17.00;1.00;;;;;;8219727;28;20237;-69
2023/04/23 17:06:10;;;;;;;2.37;1.70;;;17.00;1.00;;;;;;8265551;28;20192;-69
2023/04/23 17:10:22;;;;;;;2.93;2.30;;;16.90;1.00;;;;;;8247883;28;20278;-69
2023/04/23 17:14:24;;;;;;;3.13;2.47;;;16.80;1.00;;;;;;8262382;28;20203;-70
2023/04/23 17:19:03;;;;;;;3.60;2.50;;;16.70;1.00;;;;;;8275976;28;20203;-70
2023/04/23 17:23:04;;;;;;;3.57;2.40;;;16.60;1.00;;;;;;8287573;28;20203;-70
2023/04/23 17:27:11;;;;;;;2.93;2.30;;;16.40;1.00;;;;;;8277227;28;20190;-69
2023/04/23 17:31:12;;;;;;;2.57;1.97;;;16.30;12.10;;;;;;8276813;28;20257;-70
2023/04/23 17:35:13;;;;;;;3.40;2.67;;;16.20;9.60;;;;;;8279431;28;20186;-70
2023/04/23 17:39:52;;;;;;;4.67;2.90;;;16.10;14.70;;;;;;8281282;28;20202;-71
2023/04/23 17:44:20;;;;;;;5.03;3.47;;;16.10;15.70;;;;;;8266066;28;20201;-68
2023/04/23 17:48:29;;;;;;;5.10;3.70;;;16.10;18.70;;;;;;8276451;28;20232;-69
2023/04/23 17:52:48;;;;;;;4.27;2.90;;;16.00;36.40;;;;;;8291710;28;20183;-69
2023/04/23 17:56:52;;;;;;;4.10;2.73;;;15.90;47.90;;;;;;8288607;28;20202;-66
2023/04/23 18:01:16;;;;;;;8.23;4.53;;;15.80;57.90;;;;;;8271421;28;20217;-67
2023/04/23 18:05:19;;;;;;;7.30;4.00;;;15.70;63.00;;;;;;8294190;28;20202;-66
2023/04/23 18:09:24;;;;;;;7.97;3.97;;;15.60;66.60;;;;;;8268976;28;20281;-67
2023/04/23 18:13:33;;;;;;;9.43;4.93;;;15.50;73.30;;;;;;8301040;28;20186;-66
2023/04/23 18:17:35;;;;;;;9.73;5.43;;;15.40;66.20;;;;;;8278528;28;20198;-67
2023/04/23 18:22:04;;;;;;;6.70;3.30;;;15.30;54.00;;;;;;8270808;28;20182;-68
2023/04/23 18:26:18;;;;;;;4.30;3.10;;;15.20;38.80;;;;;;8272660;28;20198;-67
2023/04/23 18:30:25;;;;;;;3.90;3.40;;;15.10;31.70;;;;;;8264582;28;20215;-66
2023/04/23 18:34:51;;;;;;;5.13;2.93;;;15.00;31.00;;;;;;8299267;28;20186;-66
2023/04/23 18:39:10;;;;;;;3.93;3.13;;;14.90;29.80;;;;;;8298143;28;20202;-67
2023/04/23 18:43:35;;;;;;;3.80;3.00;;;14.90;29.30;;;;;;8299914;28;20194;-66
2023/04/23 18:48:17;;;;;;;;;;;;;;;;;;;;;
2023/04/23 18:52:30;;;;;;;3.53;3.00;;;14.80;34.80;;;;;;8295041;28;20211;-67
2023/04/23 18:56:35;;;;;;;4.70;3.80;;;14.70;41.00;;;;;;8299262;28;20241;-67
2023/04/23 19:00:51;;;;;;;6.27;4.10;;;14.60;42.70;;;;;;8274184;28;20207;-68
2023/04/23 19:05:05;;;;;;;4.93;3.83;;;14.60;42.90;;;;;;8278211;28;20209;-66
2023/04/23 19:27:47;;;;;;;5.20;3.63;;;14.30;48.90;;;;;;8226261;28;20191;-67
2023/04/23 19:32:16;;;;;;;4.33;3.17;;;14.20;46.70;;;;;;8245912;28;20215;-66
2023/04/23 19:36:37;;;;;;;;;;;;;;;;;;;;;
2023/04/23 19:41:31;;;;;;;3.57;2.70;;;14.20;44.00;;;;;;8299816;28;20226;-67
2023/04/23 19:45:51;;;;;;;;;;;;;;;;;;;;;
2023/04/23 19:50:12;;;;;;;3.93;3.07;;;14.10;44.30;;;;;;8175695;28;20296;-68
2023/04/23 19:54:42;;;;;;;5.00;3.33;;;14.10;42.60;;;;;;8135217;28;20198;-68
2023/04/23 19:58:56;;;;;;;3.80;3.03;;;14.10;47.40;;;;;;8303738;28;20219;-68
2023/04/23 20:03:12;;;;;;;3.47;2.93;;;14.00;56.20;;;;;;8301807;28;20201;-66
2023/04/23 20:07:46;;;;;;;3.70;3.00;;;13.90;71.90;;;;;;8282512;28;20337;-65
2023/04/23 20:12:28;;;;;;;29.77;20.97;;;13.90;93.30;;;;;;8300907;28;20209;-68
2023/04/23 20:16:59;;;;;;;10.30;8.27;;;13.80;99.90;;;;;;8272951;28;20199;-66
2023/04/23 20:25:49;;;;;;;5.87;4.57;;;13.70;99.90;;;;;;8298694;28;20194;-66
2023/04/23 20:30:04;;;;;;;3.63;3.13;;;13.70;99.90;;;;;;8280499;28;20286;-67
2023/04/23 20:34:24;;;;;;;5.27;3.10;;;13.60;99.90;;;;;;8303590;28;20186;-66
2023/04/23 20:38:29;;;;;;;3.90;3.10;;;13.60;99.90;;;;;;8302916;28;20198;-66
2023/04/23 20:47:50;;;;;;;;;;;;;;;;;;;;;
2023/04/23 20:52:01;;;;;;;8.73;7.03;;;13.50;99.90;;;;;;8300327;28;20226;-68
2023/04/23 20:56:02;;;;;;;6.30;4.90;;;13.40;99.90;;;;;;8285646;28;20210;-67
2023/04/23 21:00:10;;;;;;;6.93;4.57;;;13.30;99.90;;;;;;8261421;28;20218;-68
2023/04/23 21:04:40;;;;;;;9.73;5.13;;;13.30;99.90;;;;;;8245904;28;20299;-68
2023/04/23 21:09:07;;;;;;;8.13;5.10;;;13.20;99.90;;;;;;8264968;28;20216;-70
2023/04/23 21:13:25;;;;;;;6.27;3.93;;;13.10;99.90;;;;;;8237945;28;20245;-70
2023/04/23 21:17:38;;;;;;;7.33;6.10;;;13.10;99.90;;;;;;8244771;28;20202;-68
2023/04/23 21:21:54;;;;;;;6.23;4.27;;;12.90;99.90;;;;;;8273989;28;20197;-69
2023/04/23 21:26:00;;;;;;;15.77;9.10;;;12.80;99.90;;;;;;8253499;28;20198;-68
2023/04/23 21:30:42;;;;;;;29.17;16.63;;;12.70;99.90;;;;;;8250858;28;20227;-68
2023/04/23 21:35:03;;;;;;;16.50;10.63;;;12.70;99.90;;;;;;8238535;28;20191;-68
2023/04/23 21:39:48;;;;;;;25.57;15.33;;;12.70;99.90;;;;;;8225487;28;20208;-69
2023/04/23 21:44:38;;;;;;;15.83;9.77;;;12.70;99.90;;;;;;8210711;28;20215;-69
2023/04/23 21:48:58;;;;;;;8.77;6.23;;;12.80;99.90;;;;;;8211364;28;20353;-69
2023/04/23 21:53:02;;;;;;;7.67;4.73;;;12.80;99.90;;;;;;8226385;28;20192;-68
2023/04/23 21:57:29;;;;;;;5.20;4.33;;;12.80;99.90;;;;;;8227399;28;20212;-68
2023/04/23 22:01:34;;;;;;;6.57;4.37;;;12.70;99.90;;;;;;8215960;28;20213;-69
2023/04/23 22:05:41;;;;;;;7.13;4.60;;;12.70;99.90;;;;;;8224964;28;20237;-69
2023/04/23 22:10:42;;;;;;;5.43;4.10;;;12.50;99.90;;;;;;8254472;28;20218;-68
2023/04/23 22:14:49;;;;;;;6.37;4.47;;;12.40;99.90;;;;;;8168540;28;20205;-69
2023/04/23 22:23:43;;;;;;;36.50;21.13;;;12.10;99.90;;;;;;8292151;28;20191;-68
2023/04/23 22:27:54;;;;;;;32.77;18.57;;;12.00;1.00;;;;;;8289835;28;20186;-69
2023/04/23 22:32:06;;;;;;;28.70;17.60;;;11.90;1.00;;;;;;8302013;28;20183;-70
2023/04/23 22:36:43;;;;;;;30.80;18.73;;;11.70;1.00;;;;;;8306250;28;20187;-68
2023/04/23 22:41:02;;;;;;;23.13;13.93;;;11.50;1.00;;;;;;8305423;28;20186;-69
2023/04/23 22:45:37;;;;;;;;;;;;;;;;;;;;;
2023/04/23 22:50:13;;;;;;;6.90;4.50;;;11.00;1.00;;;;;;8298501;28;20273;-67
2023/04/23 22:59:07;;;;;;;7.97;4.87;;;10.60;78.30;;;;;;8305379;28;20348;-67
2023/04/23 23:03:23;;;;;;;6.73;4.73;;;10.40;99.90;;;;;;8285063;28;20197;-67
2023/04/23 23:07:25;;;;;;;10.17;6.67;;;10.30;99.90;;;;;;8289620;28;20202;-67
2023/04/23 23:11:41;;;;;;;12.20;8.13;;;10.20;99.90;;;;;;8309352;28;20226;-67
2023/04/23 23:16:14;;;;;;;12.53;7.20;;;10.10;1.00;;;;;;8296706;28;20183;-67
2023/04/23 23:20:25;;;;;;;9.53;5.90;;;10.00;1.00;;;;;;8290798;28;20186;-66
2023/04/23 23:24:49;;;;;;;6.57;4.83;;;9.80;1.00;;;;;;8288914;28;20190;-66
2023/04/23 23:28:56;;;;;;;7.90;4.47;;;9.60;1.00;;;;;;8286861;28;20439;-67
2023/04/23 23:33:39;;;;;;;5.63;4.40;;;9.40;1.00;;;;;;8286497;28;20186;-66
2023/04/23 23:37:46;;;;;;;;;;;;;;;;;;;;;
2023/04/23 23:41:53;;;;;;;10.63;6.03;;;9.20;1.00;;;;;;8309023;28;20244;-66
2023/04/23 23:46:03;;;;;;;15.73;9.50;;;9.10;1.00;;;;;;8307155;28;20274;-66
2023/04/23 23:50:36;;;;;;;17.53;10.00;;;9.10;45.30;;;;;;8289960;28;20252;-67
2023/04/23 23:55:02;;;;;;;14.03;7.97;;;9.00;99.90;;;;;;8303415;28;20359;-66
2023/04/23 23:59:09;;;;;;;14.23;10.57;;;8.80;99.90;;;;;;8282786;28;20606;-67
